Time;durP1;ratioP1;P1;durP2;ratioP2;P2;SDS_P1;SDS_P2;PMS_P1;PMS_P2;Temp;Humidity;BMP_temperature;BMP_pressure;BME280_temperature;BME280_humidity;BME280_pressure;Samples;Min_cycle;Max_cycle;Signal;HPM_P1;HPM_P2
2022/11/07 00:02:06;;;;;;;14.20;6.32;;;;;;;;;;5033333;28;20029;-78
2022/11/07 00:04:33;;;;;;;25.38;10.48;;;;;;;;;;5032876;28;20029;-78
2022/11/07 00:06:59;;;;;;;25.52;9.35;;;;;;;;;;5033281;28;20105;-77
2022/11/07 00:09:25;;;;;;;32.03;14.32;;;;;;;;;;5031771;28;20042;-78
2022/11/07 00:11:52;;;;;;;7.40;6.75;;;;;;;;;;5032701;28;20030;-78
2022/11/07 00:14:19;;;;;;;21.88;8.48;;;;;;;;;;5048300;28;20438;-78
2022/11/07 00:16:46;;;;;;;8.20;4.40;;;;;;;;;;5031980;28;20087;-79
2022/11/07 00:19:15;;;;;;;6.63;4.00;;;;;;;;;;5032779;28;20029;-78
2022/11/07 00:21:42;;;;;;;11.82;6.38;;;;;;;;;;5031909;28;20033;-78
2022/11/07 00:24:09;;;;;;;4.65;3.28;;;;;;;;;;5031906;28;20065;-78
2022/11/07 00:26:36;;;;;;;11.55;10.35;;;;;;;;;;5033580;28;20033;-77
2022/11/07 00:29:03;;;;;;;9.65;7.60;;;;;;;;;;5031838;28;20037;-78
2022/11/07 00:31:30;;;;;;;2.35;2.15;;;;;;;;;;5026154;28;20171;-78
2022/11/07 00:33:56;;;;;;;9.75;4.30;;;;;;;;;;5032353;28;20038;-78
2022/11/07 00:36:24;;;;;;;7.32;3.92;;;;;;;;;;5032336;28;20464;-78
2022/11/07 00:38:50;;;;;;;1.08;1.08;;;;;;;;;;5034769;28;20034;-78
2022/11/07 00:41:17;;;;;;;21.65;9.27;;;;;;;;;;5032656;28;20033;-78
2022/11/07 00:43:43;;;;;;;1.00;0.75;;;;;;;;;;5032771;28;20376;-79
2022/11/07 00:46:11;;;;;;;6.80;6.20;;;;;;;;;;5045939;28;20399;-78
2022/11/07 00:48:37;;;;;;;28.33;11.43;;;;;;;;;;5032617;28;20109;-79
2022/11/07 00:51:11;;;;;;;13.20;8.77;;;;;;;;;;5031353;28;20038;-78
2022/11/07 00:53:38;;;;;;;5.57;4.65;;;;;;;;;;5019877;28;20057;-78
2022/11/07 00:56:05;;;;;;;4.75;4.05;;;;;;;;;;5018170;28;20100;-78
2022/11/07 00:58:32;;;;;;;19.38;7.97;;;;;;;;;;5040501;28;20053;-78
2022/11/07 01:00:58;;;;;;;7.43;6.43;;;;;;;;;;5029766;28;20049;-77
2022/11/07 01:06:11;;;;;;;15.18;9.50;;;;;;;;;;5035899;28;20045;-78
2022/11/07 01:08:37;;;;;;;2.45;2.35;;;;;;;;;;5035052;28;20046;-79
2022/11/07 01:11:05;;;;;;;9.65;6.57;;;;;;;;;;5034977;28;20124;-79
2022/11/07 01:13:31;;;;;;;3.90;3.25;;;;;;;;;;5034619;28;20045;-79
2022/11/07 01:15:58;;;;;;;21.90;11.18;;;;;;;;;;5036254;28;20533;-79
2022/11/07 01:18:24;;;;;;;25.33;9.68;;;;;;;;;;5028224;28;20317;-79
2022/11/07 01:20:54;;;;;;;26.98;14.95;;;;;;;;;;5033435;28;20034;-78
2022/11/07 01:23:21;;;;;;;8.50;6.78;;;;;;;;;;5020430;28;20087;-79
2022/11/07 01:25:48;;;;;;;8.40;6.20;;;;;;;;;;5019121;28;20072;-79
2022/11/07 01:28:14;;;;;;;7.93;4.30;;;;;;;;;;5034740;28;20038;-79
2022/11/07 01:30:41;;;;;;;1.50;1.20;;;;;;;;;;5034723;28;20455;-78
2022/11/07 01:33:08;;;;;;;4.10;3.72;;;;;;;;;;5034272;28;20245;-79
2022/11/07 01:35:35;;;;;;;13.32;7.65;;;;;;;;;;5036412;28;20041;-79
2022/11/07 01:38:02;;;;;;;28.73;14.10;;;;;;;;;;5034814;28;20076;-79
2022/11/07 01:40:28;;;;;;;26.77;14.35;;;;;;;;;;5036102;28;20038;-79
2022/11/07 01:42:54;;;;;;;29.67;13.13;;;;;;;;;;5036130;28;20040;-78
2022/11/07 01:45:25;;;;;;;29.52;16.92;;;;;;;;;;5034398;28;20077;-79
2022/11/07 01:47:53;;;;;;;3.83;3.15;;;;;;;;;;5031210;28;20029;-78
2022/11/07 01:50:19;;;;;;;13.77;7.53;;;;;;;;;;5026009;28;20140;-78
2022/11/07 01:52:47;;;;;;;27.83;9.73;;;;;;;;;;5030954;28;20372;-79
2022/11/07 01:55:33;;;;;;;9.25;4.57;;;;;;;;;;5033640;28;20476;-77
2022/11/07 01:58:05;;;;;;;17.63;8.98;;;;;;;;;;5033253;28;20038;-78
2022/11/07 02:00:32;;;;;;;30.50;17.42;;;;;;;;;;5034294;28;20045;-79
2022/11/07 02:03:01;;;;;;;18.40;9.70;;;;;;;;;;5031860;28;20119;-79
2022/11/07 02:05:59;;;;;;;32.30;9.85;;;;;;;;;;5032427;28;20033;-78
2022/11/07 02:08:26;;;;;;;38.83;17.48;;;;;;;;;;4999642;28;20044;-80
2022/11/07 02:10:53;;;;;;;11.88;7.93;;;;;;;;;;5036198;28;20038;-77
2022/11/07 02:13:24;;;;;;;33.83;16.08;;;;;;;;;;5038174;28;20052;-78
2022/11/07 02:15:51;;;;;;;32.92;19.70;;;;;;;;;;5041042;28;20068;-79
2022/11/07 02:18:17;;;;;;;20.42;12.80;;;;;;;;;;5027147;28;20036;-80
2022/11/07 02:20:45;;;;;;;38.85;15.93;;;;;;;;;;5039476;28;20041;-79
2022/11/07 02:23:16;;;;;;;30.90;18.23;;;;;;;;;;5032742;28;20030;-79
2022/11/07 02:25:43;;;;;;;21.63;14.25;;;;;;;;;;5017650;28;20546;-79
2022/11/07 02:28:10;;;;;;;49.80;18.52;;;;;;;;;;5039963;28;20037;-81
2022/11/07 02:30:37;;;;;;;21.50;12.63;;;;;;;;;;5038514;28;20128;-80
2022/11/07 02:33:04;;;;;;;10.32;7.10;;;;;;;;;;5041307;28;20041;-81
2022/11/07 02:35:33;;;;;;;40.80;16.30;;;;;;;;;;5037943;28;20368;-79
2022/11/07 02:37:59;;;;;;;1.95;1.85;;;;;;;;;;5035880;28;20061;-81
2022/11/07 02:40:27;;;;;;;29.40;17.23;;;;;;;;;;5017157;28;20041;-82
2022/11/07 02:42:53;;;;;;;38.47;18.33;;;;;;;;;;5033774;28;20036;-79
2022/11/07 02:45:23;;;;;;;20.60;11.00;;;;;;;;;;5020050;28;20030;-80
2022/11/07 02:47:49;;;;;;;26.92;6.70;;;;;;;;;;5018509;28;20092;-78
2022/11/07 02:50:16;;;;;;;1.42;1.38;;;;;;;;;;5019057;28;20069;-76
2022/11/07 02:52:42;;;;;;;8.00;7.32;;;;;;;;;;5034620;28;20038;-78
2022/11/07 02:55:09;;;;;;;27.42;12.65;;;;;;;;;;5017491;28;20037;-77
2022/11/07 02:57:35;;;;;;;33.65;18.63;;;;;;;;;;5047288;28;20119;-77
2022/11/07 03:00:02;;;;;;;32.85;17.50;;;;;;;;;;5044881;28;20041;-77
2022/11/07 03:02:28;;;;;;;44.85;19.58;;;;;;;;;;5036037;28;20071;-78
2022/11/07 03:04:55;;;;;;;40.67;17.25;;;;;;;;;;5020549;28;20056;-79
2022/11/07 03:07:21;;;;;;;32.72;18.25;;;;;;;;;;5038632;28;20042;-77
2022/11/07 03:09:47;;;;;;;28.92;14.48;;;;;;;;;;5047419;28;20506;-78
2022/11/07 03:12:14;;;;;;;20.83;12.13;;;;;;;;;;5033368;28;20041;-78
2022/11/07 03:14:40;;;;;;;32.42;17.05;;;;;;;;;;5033441;28;20041;-79
2022/11/07 03:17:06;;;;;;;57.83;23.63;;;;;;;;;;5034594;28;20048;-78
2022/11/07 03:19:33;;;;;;;16.10;9.43;;;;;;;;;;5018914;28;20423;-76
2022/11/07 03:21:59;;;;;;;36.15;13.13;;;;;;;;;;5024167;28;20041;-77
2022/11/07 03:24:25;;;;;;;15.13;12.63;;;;;;;;;;5014506;28;20037;-76
2022/11/07 03:26:52;;;;;;;28.33;9.98;;;;;;;;;;5033180;28;20392;-77
2022/11/07 03:29:18;;;;;;;28.40;14.90;;;;;;;;;;5013856;28;20445;-76
2022/11/07 03:31:44;;;;;;;18.23;10.63;;;;;;;;;;5030681;28;20108;-77
2022/11/07 03:34:11;;;;;;;24.67;6.38;;;;;;;;;;5030254;28;20471;-76
2022/11/07 03:36:37;;;;;;;13.90;7.75;;;;;;;;;;5032461;28;20048;-76
2022/11/07 03:39:03;;;;;;;47.70;20.63;;;;;;;;;;5023748;28;20029;-77
2022/11/07 03:41:30;;;;;;;23.30;10.68;;;;;;;;;;5032679;28;20487;-78
2022/11/07 03:43:56;;;;;;;16.77;7.47;;;;;;;;;;5033832;28;20033;-77
2022/11/07 03:46:22;;;;;;;14.07;8.85;;;;;;;;;;5032641;28;20034;-75
2022/11/07 03:48:49;;;;;;;26.55;13.90;;;;;;;;;;5033041;28;20439;-78
2022/11/07 03:51:17;;;;;;;45.78;19.08;;;;;;;;;;5024741;28;20060;-76
2022/11/07 03:53:44;;;;;;;34.92;16.48;;;;;;;;;;5033026;28;20038;-78
2022/11/07 03:56:11;;;;;;;14.88;12.93;;;;;;;;;;5022513;28;20071;-79
2022/11/07 03:58:38;;;;;;;16.13;6.00;;;;;;;;;;5032766;28;20038;-80
2022/11/07 04:01:05;;;;;;;25.10;10.80;;;;;;;;;;5024448;28;20037;-79
2022/11/07 04:03:31;;;;;;;24.67;13.77;;;;;;;;;;5035274;28;20032;-81
2022/11/07 04:05:58;;;;;;;32.17;13.95;;;;;;;;;;5029666;28;20032;-80
2022/11/07 04:08:25;;;;;;;29.05;16.02;;;;;;;;;;5032448;28;20593;-85
2022/11/07 04:10:51;;;;;;;43.42;21.60;;;;;;;;;;5027794;28;20033;-82
2022/11/07 04:18:50;;;;;;;39.75;15.45;;;;;;;;;;5030396;28;20039;-84
2022/11/07 04:21:16;;;;;;;12.02;8.20;;;;;;;;;;5016060;28;20053;-80
2022/11/07 04:23:42;;;;;;;17.35;14.15;;;;;;;;;;5023347;28;20083;-81
2022/11/07 04:28:54;;;;;;;29.70;15.20;;;;;;;;;;5026154;28;20041;-79
2022/11/07 04:31:21;;;;;;;21.73;13.10;;;;;;;;;;5026877;28;20341;-81
2022/11/07 04:33:47;;;;;;;12.32;6.93;;;;;;;;;;5020927;28;20056;-79
2022/11/07 04:36:13;;;;;;;16.42;7.10;;;;;;;;;;5060867;23;20028;-78
2022/11/07 04:38:40;;;;;;;20.73;13.25;;;;;;;;;;5023440;28;20037;-78
2022/11/07 04:41:06;;;;;;;17.17;9.77;;;;;;;;;;5026967;28;20030;-79
2022/11/07 04:43:32;;;;;;;30.35;14.63;;;;;;;;;;5023992;28;20115;-77
2022/11/07 04:45:59;;;;;;;15.27;10.40;;;;;;;;;;5026014;28;20421;-79
2022/11/07 04:48:25;;;;;;;4.90;3.92;;;;;;;;;;5025378;28;20517;-78
2022/11/07 04:50:51;;;;;;;14.18;13.02;;;;;;;;;;5025547;28;20041;-79
2022/11/07 04:53:18;;;;;;;23.95;12.68;;;;;;;;;;5029635;28;20532;-79
2022/11/07 04:55:45;;;;;;;28.80;12.45;;;;;;;;;;5028444;28;20064;-79
2022/11/07 04:58:11;;;;;;;9.70;8.23;;;;;;;;;;5008971;28;20059;-79
2022/11/07 05:00:38;;;;;;;25.35;10.68;;;;;;;;;;5015756;28;20040;-78
2022/11/07 05:03:04;;;;;;;5.63;4.03;;;;;;;;;;5029202;28;20417;-77
2022/11/07 05:05:30;;;;;;;14.65;8.93;;;;;;;;;;5032971;28;20508;-78
2022/11/07 05:07:57;;;;;;;36.53;16.77;;;;;;;;;;5011276;28;20030;-78
2022/11/07 05:10:27;;;;;;;10.63;7.35;;;;;;;;;;5010396;28;20433;-78
2022/11/07 05:12:54;;;;;;;17.23;8.57;;;;;;;;;;5025569;28;20173;-78
2022/11/07 05:15:21;;;;;;;12.52;6.05;;;;;;;;;;5015109;28;20068;-77
2022/11/07 05:17:47;;;;;;;3.58;3.30;;;;;;;;;;5027243;28;20037;-77
2022/11/07 05:20:28;;;;;;;33.97;11.65;;;;;;;;;;5025958;28;20045;-78
2022/11/07 05:25:43;;;;;;;17.70;10.98;;;;;;;;;;5029429;28;20355;-79
2022/11/07 05:28:11;;;;;;;12.98;8.32;;;;;;;;;;5026356;28;20056;-78
2022/11/07 05:30:38;;;;;;;29.73;15.30;;;;;;;;;;5026113;28;20389;-77
2022/11/07 05:33:05;;;;;;;13.90;10.30;;;;;;;;;;5017849;28;20025;-77
2022/11/07 05:35:31;;;;;;;26.80;13.43;;;;;;;;;;5020765;28;20045;-77
2022/11/07 05:37:57;;;;;;;3.03;1.92;;;;;;;;;;5013513;28;20045;-78
2022/11/07 05:40:24;;;;;;;20.92;13.38;;;;;;;;;;5007994;28;20042;-78
2022/11/07 05:42:50;;;;;;;15.80;8.35;;;;;;;;;;5011837;28;20446;-79
2022/11/07 05:45:16;;;;;;;13.32;6.55;;;;;;;;;;5012294;28;20040;-78
2022/11/07 05:47:43;;;;;;;13.07;8.70;;;;;;;;;;5015811;28;20040;-78
2022/11/07 05:50:09;;;;;;;26.77;14.60;;;;;;;;;;5007714;28;20041;-78
2022/11/07 05:52:35;;;;;;;23.33;10.98;;;;;;;;;;5012993;28;20513;-78
2022/11/07 05:55:02;;;;;;;20.95;11.40;;;;;;;;;;5015508;28;20237;-78
2022/11/07 05:57:31;;;;;;;21.90;6.30;;;;;;;;;;5016635;28;20030;-79
2022/11/07 05:59:57;;;;;;;23.15;12.63;;;;;;;;;;5016761;28;20034;-78
2022/11/07 06:02:23;;;;;;;10.85;9.98;;;;;;;;;;5014289;28;20038;-77
2022/11/07 06:04:50;;;;;;;9.57;3.55;;;;;;;;;;5012694;28;20033;-78
2022/11/07 06:07:16;;;;;;;8.32;6.13;;;;;;;;;;5012932;28;20048;-79
2022/11/07 06:09:42;;;;;;;4.07;3.33;;;;;;;;;;4991029;28;20033;-79
2022/11/07 06:12:09;;;;;;;1.52;1.42;;;;;;;;;;5010100;28;20034;-78
2022/11/07 06:14:35;;;;;;;24.77;12.23;;;;;;;;;;5006464;28;20038;-78
2022/11/07 06:17:02;;;;;;;14.27;5.93;;;;;;;;;;5008538;28;20181;-79
2022/11/07 06:19:28;;;;;;;0.17;0.17;;;;;;;;;;5002887;28;20048;-80
2022/11/07 06:21:54;;;;;;;25.13;11.13;;;;;;;;;;5004474;28;20038;-79
2022/11/07 06:24:21;;;;;;;1.27;1.20;;;;;;;;;;5006565;28;20458;-79
2022/11/07 06:26:47;;;;;;;12.32;5.90;;;;;;;;;;5010857;28;20027;-80
2022/11/07 06:29:13;;;;;;;8.57;5.60;;;;;;;;;;5012651;28;20061;-79
2022/11/07 06:31:40;;;;;;;10.50;6.18;;;;;;;;;;5010439;28;20676;-78
2022/11/07 06:34:06;;;;;;;9.35;6.68;;;;;;;;;;5006237;28;20137;-79
2022/11/07 06:36:32;;;;;;;4.82;2.70;;;;;;;;;;5009692;28;20093;-79
2022/11/07 06:38:58;;;;;;;0.57;0.57;;;;;;;;;;5006579;28;20068;-79
2022/11/07 06:41:25;;;;;;;2.78;2.53;;;;;;;;;;5008997;28;20038;-78
2022/11/07 06:43:51;;;;;;;7.80;3.88;;;;;;;;;;4990220;28;20398;-78
2022/11/07 06:46:21;;;;;;;16.65;7.93;;;;;;;;;;5007795;28;20026;-78
2022/11/07 06:48:48;;;;;;;11.27;7.60;;;;;;;;;;5007663;28;20386;-78
2022/11/07 06:51:14;;;;;;;3.72;1.65;;;;;;;;;;5000204;28;20133;-78
2022/11/07 06:53:40;;;;;;;18.02;5.80;;;;;;;;;;5004776;28;20054;-78
2022/11/07 06:56:08;;;;;;;10.52;6.05;;;;;;;;;;5001417;28;20121;-79
2022/11/07 06:58:34;;;;;;;12.13;7.22;;;;;;;;;;4996987;28;20117;-77
2022/11/07 07:01:01;;;;;;;15.98;6.70;;;;;;;;;;5007697;28;20042;-78
2022/11/07 07:03:28;;;;;;;4.50;3.35;;;;;;;;;;5008382;28;20079;-78
2022/11/07 07:05:54;;;;;;;13.88;5.93;;;;;;;;;;5014102;28;20098;-79
2022/11/07 07:08:20;;;;;;;14.15;5.25;;;;;;;;;;5005499;28;20064;-80
2022/11/07 07:10:47;;;;;;;8.55;4.53;;;;;;;;;;5007448;28;20064;-78
2022/11/07 07:13:14;;;;;;;17.92;6.38;;;;;;;;;;5004392;28;20138;-79
2022/11/07 07:15:40;;;;;;;14.27;6.55;;;;;;;;;;5009041;28;20459;-78
2022/11/07 07:18:06;;;;;;;5.10;4.38;;;;;;;;;;5006841;28;20048;-80
2022/11/07 07:20:33;;;;;;;9.80;4.63;;;;;;;;;;5008815;28;20360;-79
2022/11/07 07:22:59;;;;;;;12.70;5.35;;;;;;;;;;5005443;28;20395;-79
2022/11/07 07:25:26;;;;;;;5.35;2.78;;;;;;;;;;5008663;28;20162;-79
2022/11/07 07:27:52;;;;;;;4.50;2.92;;;;;;;;;;5011058;28;20033;-79
2022/11/07 07:30:18;;;;;;;3.17;2.67;;;;;;;;;;5010467;28;20568;-81
2022/11/07 07:32:45;;;;;;;1.58;1.27;;;;;;;;;;5008010;28;20037;-80
2022/11/07 07:35:11;;;;;;;7.28;4.15;;;;;;;;;;5004931;28;20085;-78
2022/11/07 07:37:37;;;;;;;0.32;0.32;;;;;;;;;;5021660;28;20046;-78
2022/11/07 07:40:04;;;;;;;0.17;0.17;;;;;;;;;;5029229;28;20434;-79
2022/11/07 07:42:30;;;;;;;0.75;0.75;;;;;;;;;;5027837;28;20374;-80
2022/11/07 07:44:56;;;;;;;0.00;0.00;;;;;;;;;;5030439;28;20036;-80
2022/11/07 07:47:22;;;;;;;0.10;0.10;;;;;;;;;;5020241;28;20045;-80
2022/11/07 07:49:49;;;;;;;0.90;0.90;;;;;;;;;;5024834;28;20034;-78
2022/11/07 07:52:15;;;;;;;0.95;0.95;;;;;;;;;;5030741;28;20038;-80
2022/11/07 07:54:41;;;;;;;31.52;2.58;;;;;;;;;;5023745;28;20036;-81
2022/11/07 07:57:08;;;;;;;0.35;0.35;;;;;;;;;;5023217;28;20112;-81
2022/11/07 07:59:34;;;;;;;5.60;4.07;;;;;;;;;;5026777;28;20083;-83
2022/11/07 08:02:00;;;;;;;1.58;0.95;;;;;;;;;;5027382;28;20049;-81
2022/11/07 08:04:26;;;;;;;5.30;3.25;;;;;;;;;;5027608;28;20075;-80
2022/11/07 08:06:53;;;;;;;5.45;4.97;;;;;;;;;;5025659;28;20503;-79
2022/11/07 08:09:19;;;;;;;6.20;5.65;;;;;;;;;;5027430;28;20386;-78
2022/11/07 08:11:45;;;;;;;3.80;3.50;;;;;;;;;;5026689;28;20025;-80
2022/11/07 08:14:12;;;;;;;6.13;5.32;;;;;;;;;;5023953;28;20509;-79
2022/11/07 08:16:38;;;;;;;5.03;3.25;;;;;;;;;;5024242;28;20037;-80
2022/11/07 08:19:04;;;;;;;8.68;6.00;;;;;;;;;;5021513;28;20429;-78
2022/11/07 08:21:31;;;;;;;9.18;4.97;;;;;;;;;;5024772;28;20044;-79
2022/11/07 08:23:57;;;;;;;10.32;0.95;;;;;;;;;;5028106;28;20470;-79
2022/11/07 08:26:24;;;;;;;1.13;1.02;;;;;;;;;;5028437;28;20410;-79
2022/11/07 08:28:52;;;;;;;5.32;3.85;;;;;;;;;;5009088;28;20413;-80
2022/11/07 08:31:19;;;;;;;19.95;8.88;;;;;;;;;;5023380;28;20068;-79
2022/11/07 08:33:45;;;;;;;2.25;2.05;;;;;;;;;;5022679;28;20467;-79
2022/11/07 08:36:12;;;;;;;5.97;4.00;;;;;;;;;;5021020;28;20498;-78
2022/11/07 08:38:38;;;;;;;3.40;3.20;;;;;;;;;;4988145;28;20164;-79
2022/11/07 08:41:05;;;;;;;8.75;5.05;;;;;;;;;;5001240;28;20046;-79
2022/11/07 08:43:31;;;;;;;2.80;1.67;;;;;;;;;;4987252;28;20060;-79
2022/11/07 08:45:57;;;;;;;0.90;0.90;;;;;;;;;;5005471;28;20054;-80
2022/11/07 08:48:24;;;;;;;0.00;0.00;;;;;;;;;;5001547;28;20046;-79
2022/11/07 08:50:54;;;;;;;8.00;7.32;;;;;;;;;;5002041;28;20443;-78
2022/11/07 08:53:21;;;;;;;4.80;4.55;;;;;;;;;;5009878;28;20115;-80
2022/11/07 08:55:47;;;;;;;0.85;0.63;;;;;;;;;;5002635;28;20041;-80
2022/11/07 08:58:14;;;;;;;7.18;2.40;;;;;;;;;;5004868;28;20029;-79
2022/11/07 09:00:41;;;;;;;11.13;5.88;;;;;;;;;;5010613;28;20077;-78
2022/11/07 09:03:07;;;;;;;3.03;2.90;;;;;;;;;;4992564;28;20991;-86
2022/11/07 09:05:34;;;;;;;15.18;5.63;;;;;;;;;;4990986;28;20038;-84
2022/11/07 09:08:00;;;;;;;0.98;0.98;;;;;;;;;;5001653;28;20125;-85
2022/11/07 09:10:27;;;;;;;0.75;0.75;;;;;;;;;;4993999;28;20037;-85
2022/11/07 09:12:53;;;;;;;0.75;0.75;;;;;;;;;;4996957;28;20044;-85
2022/11/07 09:15:20;;;;;;;0.32;0.32;;;;;;;;;;5006804;28;20038;-84
2022/11/07 09:17:47;;;;;;;0.57;0.57;;;;;;;;;;5010374;28;20062;-84
2022/11/07 09:20:14;;;;;;;6.07;3.00;;;;;;;;;;5002877;28;20321;-83
2022/11/07 09:22:40;;;;;;;1.88;1.77;;;;;;;;;;5007284;28;20035;-84
2022/11/07 09:25:07;;;;;;;3.13;2.92;;;;;;;;;;5006898;28;20021;-84
2022/11/07 09:27:33;;;;;;;3.92;1.75;;;;;;;;;;5006290;28;20026;-85
2022/11/07 09:30:00;;;;;;;8.00;2.28;;;;;;;;;;5003748;28;20040;-84
2022/11/07 09:32:26;;;;;;;6.30;2.97;;;;;;;;;;5010570;28;20065;-84
2022/11/07 09:34:53;;;;;;;0.00;0.00;;;;;;;;;;5016013;28;20026;-84
2022/11/07 09:37:20;;;;;;;0.35;0.35;;;;;;;;;;5022450;28;20548;-85
2022/11/07 09:39:47;;;;;;;1.60;0.98;;;;;;;;;;5023487;28;20455;-84
2022/11/07 09:42:16;;;;;;;9.52;3.80;;;;;;;;;;5033947;28;20030;-85
2022/11/07 09:44:59;;;;;;;7.10;6.28;;;;;;;;;;5035703;28;20033;-83
2022/11/07 09:47:53;;;;;;;1.95;1.20;;;;;;;;;;5035706;28;20040;-85
2022/11/07 09:50:22;;;;;;;4.78;4.45;;;;;;;;;;5026653;28;20125;-84
2022/11/07 09:52:51;;;;;;;3.65;3.35;;;;;;;;;;5028680;28;20029;-84
2022/11/07 09:55:35;;;;;;;2.17;2.08;;;;;;;;;;5028901;28;20424;-85
2022/11/07 09:58:19;;;;;;;2.58;2.40;;;;;;;;;;5030620;28;20425;-84
2022/11/07 10:00:46;;;;;;;3.17;1.50;;;;;;;;;;5029699;28;20030;-83
2022/11/07 10:03:12;;;;;;;0.80;0.80;;;;;;;;;;5031210;28;20105;-84
2022/11/07 10:06:00;;;;;;;2.75;0.65;;;;;;;;;;5027289;28;20059;-84
2022/11/07 10:08:31;;;;;;;4.30;1.38;;;;;;;;;;5033428;28;20037;-84
2022/11/07 10:10:59;;;;;;;0.10;0.10;;;;;;;;;;5025090;28;20044;-83
2022/11/07 10:13:28;;;;;;;4.65;2.90;;;;;;;;;;5031248;28;20061;-84
2022/11/07 10:16:03;;;;;;;2.13;1.98;;;;;;;;;;5019085;28;20033;-83
2022/11/07 10:18:52;;;;;;;2.95;2.75;;;;;;;;;;5030962;28;20099;-84
2022/11/07 10:21:23;;;;;;;9.10;8.13;;;;;;;;;;5005175;28;20413;-84
2022/11/07 10:23:58;;;;;;;6.35;2.70;;;;;;;;;;5029515;28;20048;-82
2022/11/07 10:26:25;;;;;;;0.95;0.95;;;;;;;;;;5023058;28;20121;-83
2022/11/07 10:29:10;;;;;;;0.10;0.10;;;;;;;;;;5026957;28;20164;-83
2022/11/07 10:31:39;;;;;;;0.68;0.68;;;;;;;;;;5028296;28;20080;-83
2022/11/07 10:34:16;;;;;;;1.10;1.10;;;;;;;;;;5029370;28;20057;-85
2022/11/07 10:36:43;;;;;;;0.13;0.13;;;;;;;;;;5019917;28;20065;-84
2022/11/07 10:39:16;;;;;;;0.08;0.08;;;;;;;;;;5008092;28;20121;-83
2022/11/07 10:42:03;;;;;;;4.28;2.13;;;;;;;;;;5003679;28;20070;-84
2022/11/07 10:44:29;;;;;;;1.02;1.02;;;;;;;;;;5004374;28;20362;-84
2022/11/07 10:46:55;;;;;;;0.20;0.20;;;;;;;;;;5004798;28;20419;-85
2022/11/07 10:49:26;;;;;;;4.03;3.72;;;;;;;;;;5006546;28;20042;-84
2022/11/07 10:51:53;;;;;;;4.07;3.88;;;;;;;;;;5006524;28;20041;-85
2022/11/07 10:54:25;;;;;;;2.38;1.75;;;;;;;;;;5022871;28;20480;-84
2022/11/07 10:57:10;;;;;;;8.68;8.15;;;;;;;;;;5006478;28;20101;-86
2022/11/07 10:59:38;;;;;;;0.30;0.30;;;;;;;;;;5002857;28;20476;-84
2022/11/07 11:02:37;;;;;;;2.17;2.00;;;;;;;;;;5002150;28;20117;-85
2022/11/07 11:05:03;;;;;;;7.18;5.13;;;;;;;;;;4943866;28;20042;-84
2022/11/07 11:07:34;;;;;;;20.23;13.65;;;;;;;;;;4994555;28;20039;-83
2022/11/07 11:10:01;;;;;;;7.65;6.97;;;;;;;;;;4995503;28;20033;-84
2022/11/07 11:12:29;;;;;;;5.25;3.08;;;;;;;;;;5000382;28;20033;-84
2022/11/07 11:15:12;;;;;;;0.70;0.70;;;;;;;;;;5004730;28;20081;-84
2022/11/07 11:17:38;;;;;;;4.63;4.30;;;;;;;;;;4998112;28;20483;-84
2022/11/07 11:20:05;;;;;;;3.78;3.42;;;;;;;;;;4996287;28;20034;-85
2022/11/07 11:22:39;;;;;;;0.45;0.45;;;;;;;;;;5002630;28;20105;-83
2022/11/07 11:25:11;;;;;;;0.93;0.93;;;;;;;;;;4984432;28;20045;-83
2022/11/07 11:27:38;;;;;;;5.57;0.95;;;;;;;;;;4990445;28;20038;-85
2022/11/07 11:30:06;;;;;;;3.20;2.40;;;;;;;;;;4980773;28;20035;-83
2022/11/07 11:32:40;;;;;;;5.57;5.18;;;;;;;;;;4992018;28;20070;-83
2022/11/07 11:35:07;;;;;;;9.40;6.13;;;;;;;;;;4993062;28;20094;-85
2022/11/07 11:37:36;;;;;;;0.88;0.88;;;;;;;;;;5000575;28;20042;-84
2022/11/07 11:40:03;;;;;;;0.00;0.00;;;;;;;;;;5010155;28;20057;-85
2022/11/07 11:42:36;;;;;;;0.20;0.20;;;;;;;;;;5016645;28;20040;-84
2022/11/07 11:45:29;;;;;;;0.20;0.20;;;;;;;;;;5018072;28;20025;-84
2022/11/07 11:48:13;;;;;;;0.63;0.35;;;;;;;;;;4962272;28;20034;-84
2022/11/07 11:50:43;;;;;;;7.65;7.18;;;;;;;;;;5001856;28;20041;-84
2022/11/07 11:53:15;;;;;;;0.10;0.10;;;;;;;;;;4998622;28;20217;-85
2022/11/07 11:55:44;;;;;;;0.25;0.25;;;;;;;;;;5009679;28;20084;-84
2022/11/07 11:58:21;;;;;;;2.00;1.92;;;;;;;;;;5012369;28;20088;-84
2022/11/07 12:00:53;;;;;;;6.63;6.05;;;;;;;;;;4995035;28;20080;-83
2022/11/07 12:03:25;;;;;;;1.42;1.38;;;;;;;;;;4995488;28;20038;-85
2022/11/07 12:06:11;;;;;;;4.97;2.97;;;;;;;;;;5003099;28;20117;-86
2022/11/07 12:08:47;;;;;;;4.45;3.42;;;;;;;;;;4981817;28;20366;-84
2022/11/07 12:11:16;;;;;;;3.47;3.17;;;;;;;;;;4986893;28;20030;-83
2022/11/07 12:13:45;;;;;;;8.25;3.88;;;;;;;;;;5003897;28;20038;-84
2022/11/07 12:16:25;;;;;;;8.52;8.15;;;;;;;;;;5002225;28;20041;-83
2022/11/07 12:18:57;;;;;;;4.07;3.88;;;;;;;;;;5006010;28;20378;-84
2022/11/07 12:21:33;;;;;;;3.70;3.55;;;;;;;;;;5013869;28;20542;-84
2022/11/07 12:24:16;;;;;;;1.02;1.02;;;;;;;;;;5007387;28;20052;-84
2022/11/07 12:26:58;;;;;;;2.17;2.08;;;;;;;;;;5008262;28;20053;-84
2022/11/07 12:29:43;;;;;;;2.38;2.28;;;;;;;;;;5004986;28;20030;-84
2022/11/07 12:32:16;;;;;;;1.77;1.67;;;;;;;;;;5005245;28;20049;-81
2022/11/07 12:35:08;;;;;;;1.38;1.27;;;;;;;;;;4999917;28;20064;-85
2022/11/07 12:37:58;;;;;;;11.77;10.88;;;;;;;;;;4981999;28;20086;-84
2022/11/07 12:40:27;;;;;;;3.85;3.70;;;;;;;;;;5008795;28;20053;-85
2022/11/07 12:42:54;;;;;;;0.20;0.20;;;;;;;;;;5004430;28;20025;-85
2022/11/07 12:45:23;;;;;;;3.20;2.15;;;;;;;;;;5007448;28;21629;-84
2022/11/07 12:47:58;;;;;;;0.45;0.45;;;;;;;;;;5002324;28;20168;-84
2022/11/07 12:50:34;;;;;;;0.10;0.10;;;;;;;;;;5007356;28;20028;-84
2022/11/07 12:53:15;;;;;;;4.18;3.67;;;;;;;;;;5010911;28;20120;-84
2022/11/07 12:55:44;;;;;;;1.58;1.55;;;;;;;;;;5005203;28;20045;-83
2022/11/07 12:58:27;;;;;;;6.03;5.75;;;;;;;;;;4998548;28;20045;-82
2022/11/07 13:00:54;;;;;;;5.10;4.82;;;;;;;;;;4998246;28;20249;-84
2022/11/07 13:03:32;;;;;;;2.88;2.78;;;;;;;;;;4996688;28;20037;-83
2022/11/07 13:06:01;;;;;;;2.75;2.65;;;;;;;;;;5011295;28;20069;-85
2022/11/07 13:08:30;;;;;;;0.70;0.70;;;;;;;;;;5010935;28;20081;-84
2022/11/07 13:11:12;;;;;;;16.25;10.13;;;;;;;;;;5007211;28;20045;-85
2022/11/07 13:13:41;;;;;;;2.97;2.65;;;;;;;;;;5001388;28;20164;-84
2022/11/07 13:16:20;;;;;;;4.60;4.30;;;;;;;;;;5013643;28;20045;-84
2022/11/07 13:18:47;;;;;;;0.00;0.00;;;;;;;;;;5006865;28;20077;-84
2022/11/07 13:21:13;;;;;;;10.18;4.57;;;;;;;;;;5005141;28;20118;-83
2022/11/07 13:23:40;;;;;;;1.42;1.35;;;;;;;;;;5013123;28;20401;-85
2022/11/07 13:26:07;;;;;;;4.13;3.83;;;;;;;;;;5006608;28;20030;-84
2022/11/07 13:28:38;;;;;;;0.90;0.90;;;;;;;;;;4982496;28;20073;-84
2022/11/07 13:31:04;;;;;;;3.70;2.42;;;;;;;;;;5024600;28;20120;-84
2022/11/07 13:33:32;;;;;;;4.47;2.65;;;;;;;;;;4998044;28;20043;-84
2022/11/07 13:36:10;;;;;;;15.45;14.43;;;;;;;;;;4996436;28;20121;-84
2022/11/07 13:38:39;;;;;;;27.17;15.35;;;;;;;;;;5005415;28;20084;-83
2022/11/07 13:41:07;;;;;;;5.53;5.07;;;;;;;;;;5007429;28;20034;-84
2022/11/07 13:43:39;;;;;;;19.90;11.32;;;;;;;;;;5005516;28;20461;-84
2022/11/07 13:46:08;;;;;;;6.40;4.28;;;;;;;;;;4997264;28;20118;-84
2022/11/07 13:48:40;;;;;;;1.67;1.58;;;;;;;;;;4998242;28;20027;-83
2022/11/07 13:51:15;;;;;;;0.73;0.63;;;;;;;;;;4993869;28;20038;-84
2022/11/07 13:53:47;;;;;;;2.80;2.58;;;;;;;;;;4998944;28;20034;-83
2022/11/07 13:56:32;;;;;;;0.10;0.10;;;;;;;;;;5014037;28;20042;-84
2022/11/07 13:59:01;;;;;;;22.52;5.88;;;;;;;;;;5012840;28;20084;-83
2022/11/07 14:01:27;;;;;;;0.35;0.35;;;;;;;;;;5030617;28;20036;-83
2022/11/07 14:03:53;;;;;;;1.15;0.43;;;;;;;;;;5013234;28;20053;-83
2022/11/07 14:06:20;;;;;;;5.78;1.08;;;;;;;;;;4999397;28;20042;-83
2022/11/07 14:08:47;;;;;;;0.28;0.28;;;;;;;;;;5020680;28;20026;-86
2022/11/07 14:11:18;;;;;;;0.00;0.00;;;;;;;;;;5011774;28;20038;-85
2022/11/07 14:13:46;;;;;;;0.30;0.28;;;;;;;;;;5012902;28;20045;-85
2022/11/07 14:16:15;;;;;;;0.47;0.47;;;;;;;;;;5006870;28;20058;-86
2022/11/07 14:21:56;;;;;;;0.00;0.00;;;;;;;;;;4938217;28;20071;-90
2022/11/07 14:24:32;;;;;;;4.85;3.30;;;;;;;;;;5023114;28;20037;-87
2022/11/07 14:27:04;;;;;;;0.22;0.22;;;;;;;;;;4982702;28;20543;-89
2022/11/07 14:30:15;;;;;;;2.42;1.20;;;;;;;;;;5007767;28;20032;-88
2022/11/07 14:33:07;;;;;;;0.85;0.85;;;;;;;;;;5010574;28;20087;-88
2022/11/07 14:35:34;;;;;;;0.32;0.25;;;;;;;;;;4953166;28;20038;-87
2022/11/07 14:38:11;;;;;;;0.05;0.05;;;;;;;;;;5018197;28;20046;-87
2022/11/07 14:40:37;;;;;;;0.00;0.00;;;;;;;;;;5014123;28;20097;-87
2022/11/07 14:43:04;;;;;;;0.00;0.00;;;;;;;;;;5013927;28;20030;-87
2022/11/07 14:45:30;;;;;;;0.00;0.00;;;;;;;;;;5012220;28;20035;-88
2022/11/07 14:48:00;;;;;;;1.02;0.93;;;;;;;;;;4995334;28;20025;-87
2022/11/07 14:50:28;;;;;;;0.32;0.32;;;;;;;;;;5014341;28;20046;-89
2022/11/07 14:53:00;;;;;;;0.35;0.35;;;;;;;;;;5009243;28;20034;-87
2022/11/07 14:55:32;;;;;;;0.65;0.65;;;;;;;;;;5006119;28;20041;-88
2022/11/07 14:58:03;;;;;;;0.70;0.70;;;;;;;;;;4998135;28;20038;-88
2022/11/07 15:00:49;;;;;;;;;;;;;;;;;;;;;
2022/11/07 15:03:20;;;;;;;0.43;0.43;;;;;;;;;;4999379;28;20046;-88
2022/11/07 15:06:09;;;;;;;;;;;;;;;;;;;;;